Time;durP1;ratioP1;P1;durP2;ratioP2;P2;SDS_P1;SDS_P2;PMS_P1;PMS_P2;Temp;Humidity;BMP_temperature;BMP_pressure;BME280_temperature;BME280_humidity;BME280_pressure;Samples;Min_cycle;Max_cycle;Signal;HPM_P1;HPM_P2
2021/06/19 00:00:21;;;;;;;;;;;;;;;24.31;60.92;99356.84;5133577;27;19923;-51
2021/06/19 00:02:46;;;;;;;;;;;;;;;24.34;60.60;99364.41;5133790;27;19911;-49
2021/06/19 00:05:12;;;;;;;;;;;;;;;24.54;59.92;99364.00;5153978;27;20033;-50
2021/06/19 00:07:38;;;;;;;;;;;;;;;24.48;60.70;99362.44;5154612;27;19918;-50
2021/06/19 00:10:03;;;;;;;;;;;;;;;24.61;60.14;99360.06;5154252;27;19943;-52
2021/06/19 00:12:28;;;;;;;;;;;;;;;24.65;59.82;99358.31;5154178;27;19911;-52
2021/06/19 00:14:54;;;;;;;;;;;;;;;24.67;59.95;99364.25;5154153;27;19954;-50
2021/06/19 00:17:19;;;;;;;;;;;;;;;24.54;60.06;99334.09;5153955;27;20002;-50
2021/06/19 00:19:44;;;;;;;;;;;;;;;24.66;60.17;99357.22;5154022;27;20089;-52
2021/06/19 00:22:09;;;;;;;;;;;;;;;24.74;59.65;99360.00;5140165;27;19911;-48
2021/06/19 00:24:35;;;;;;;;;;;;;;;24.77;59.56;99359.41;5133392;27;19916;-51
2021/06/19 00:27:01;;;;;;;;;;;;;;;24.54;60.52;99357.72;5133358;27;19934;-51
2021/06/19 00:29:26;;;;;;;;;;;;;;;24.65;60.99;99361.03;5131924;27;20406;-52
2021/06/19 00:31:51;;;;;;;;;;;;;;;24.59;59.58;99336.66;5133020;27;19919;-53
2021/06/19 00:34:16;;;;;;;;;;;;;;;24.66;59.51;99357.22;5133013;27;19915;-52
2021/06/19 00:36:42;;;;;;;;;;;;;;;24.60;59.54;99353.81;5133095;27;19911;-53
2021/06/19 00:39:07;;;;;;;;;;;;;;;24.41;59.86;99343.03;5132932;27;20367;-48
2021/06/19 00:41:34;;;;;;;;;;;;;;;24.59;59.86;99361.16;5133041;27;20010;-50
2021/06/19 00:44:00;;;;;;;;;;;;;;;24.28;60.25;99357.47;5132852;27;19911;-50
2021/06/19 00:46:25;;;;;;;;;;;;;;;23.86;61.15;99364.81;5132816;27;20346;-50
2021/06/19 00:48:50;;;;;;;;;;;;;;;23.85;61.11;99355.06;5132779;27;19911;-50
2021/06/19 00:51:15;;;;;;;;;;;;;;;23.94;60.50;99355.97;5132816;27;19919;-50
2021/06/19 00:53:41;;;;;;;;;;;;;;;23.95;60.84;99360.28;5132675;27;20375;-51
2021/06/19 00:56:06;;;;;;;;;;;;;;;23.92;60.45;99360.91;5132607;27;19911;-50
2021/06/19 00:58:31;;;;;;;;;;;;;;;23.95;60.49;99365.72;5132440;27;19938;-51
2021/06/19 01:00:57;;;;;;;;;;;;;;;24.10;59.25;99351.03;5132586;27;19915;-52
2021/06/19 01:03:22;;;;;;;;;;;;;;;23.86;59.37;99362.91;5118907;27;20005;-49
2021/06/19 01:05:49;;;;;;;;;;;;;;;23.75;59.54;99356.81;5152881;27;20316;-51
2021/06/19 01:08:14;;;;;;;;;;;;;;;23.26;60.21;99355.50;5153141;27;19972;-52
2021/06/19 01:10:39;;;;;;;;;;;;;;;23.66;59.86;99347.75;5153336;27;19922;-49
2021/06/19 01:13:06;;;;;;;;;;;;;;;23.49;60.53;99347.53;5152938;27;20067;-50
2021/06/19 01:15:31;;;;;;;;;;;;;;;23.46;60.29;99338.06;5152946;27;20887;-49
2021/06/19 01:17:56;;;;;;;;;;;;;;;23.64;59.95;99344.53;5152875;27;19911;-51
2021/06/19 01:20:22;;;;;;;;;;;;;;;23.90;59.02;99352.25;5152877;27;19983;-51
2021/06/19 01:22:48;;;;;;;;;;;;;;;23.92;59.08;99352.75;5133698;27;19933;-49
2021/06/19 01:25:18;;;;;;;;;;;;;;;23.98;58.69;99348.81;5132086;27;20334;-51
2021/06/19 01:27:43;;;;;;;;;;;;;;;24.05;58.75;99346.50;5132073;27;20547;-50
2021/06/19 01:30:08;;;;;;;;;;;;;;;23.48;60.33;99354.88;5131968;27;20011;-52
2021/06/19 01:32:35;;;;;;;;;;;;;;;23.70;59.85;99351.47;5132129;27;19934;-49
2021/06/19 01:35:00;;;;;;;;;;;;;;;23.50;60.30;99344.50;5132085;27;19985;-51
2021/06/19 01:37:27;;;;;;;;;;;;;;;23.52;60.43;99357.81;5131945;27;20347;-49
2021/06/19 01:40:00;;;;;;;;;;;;;;;23.75;59.31;99351.38;5131705;27;20435;-49
2021/06/19 01:42:26;;;;;;;;;;;;;;;23.77;59.18;99356.53;5131626;27;20332;-52
2021/06/19 01:44:51;;;;;;;;;;;;;;;23.86;59.14;99357.47;5131953;27;20002;-52
2021/06/19 01:47:16;;;;;;;;;;;;;;;23.69;59.30;99358.03;5131602;27;19911;-51
2021/06/19 01:49:41;;;;;;;;;;;;;;;23.71;59.66;99361.25;5148718;27;19967;-52
2021/06/19 01:52:07;;;;;;;;;;;;;;;23.95;58.75;99363.81;5152083;27;20378;-50
2021/06/19 01:54:38;;;;;;;;;;;;;;;24.00;58.42;99360.19;5151701;27;19911;-52
2021/06/19 01:57:06;;;;;;;;;;;;;;;23.69;59.52;99358.03;5151947;27;19968;-50
2021/06/19 01:59:32;;;;;;;;;;;;;;;23.74;59.33;99360.66;5152157;27;19911;-51
2021/06/19 02:01:59;;;;;;;;;;;;;;;23.68;59.50;99358.31;5152393;27;19941;-54
2021/06/19 02:04:24;;;;;;;;;;;;;;;23.39;59.71;99359.38;5152512;27;19919;-52
2021/06/19 02:06:50;;;;;;;;;;;;;;;23.51;59.96;99356.19;5152226;27;19911;-52
2021/06/19 02:09:15;;;;;;;;;;;;;;;23.78;58.96;99348.09;5152322;27;19979;-50
2021/06/19 02:11:40;;;;;;;;;;;;;;;23.74;59.07;99365.25;5152213;27;19907;-51
2021/06/19 02:14:05;;;;;;;;;;;;;;;23.43;60.04;99371.25;5151959;27;19954;-52
2021/06/19 02:16:31;;;;;;;;;;;;;;;23.43;59.73;99372.03;5152233;27;19954;-51
2021/06/19 02:18:56;;;;;;;;;;;;;;;23.47;59.78;99355.16;5152333;27;19962;-52
2021/06/19 02:21:21;;;;;;;;;;;;;;;23.47;59.79;99355.97;5126703;28;20347;-49
2021/06/19 02:23:47;;;;;;;;;;;;;;;23.24;60.23;99355.00;5131379;28;20320;-50
2021/06/19 02:26:12;;;;;;;;;;;;;;;22.92;60.77;99324.00;5131187;28;19911;-50
2021/06/19 02:28:37;;;;;;;;;;;;;;;23.31;59.84;99354.63;5131311;28;19918;-52
2021/06/19 02:31:02;;;;;;;;;;;;;;;23.35;59.40;99359.16;5131329;28;19911;-52
2021/06/19 02:33:28;;;;;;;;;;;;;;;23.39;59.77;99365.59;5131359;28;20490;-53
2021/06/19 02:35:53;;;;;;;;;;;;;;;23.48;59.10;99354.06;5131378;28;19922;-53
2021/06/19 02:38:19;;;;;;;;;;;;;;;23.20;60.03;99345.84;5131177;27;19962;-53
2021/06/19 02:40:44;;;;;;;;;;;;;;;23.37;59.56;99354.22;5131115;28;19915;-52
2021/06/19 02:43:09;;;;;;;;;;;;;;;22.87;60.56;99355.84;5131194;28;20017;-51
2021/06/19 02:45:35;;;;;;;;;;;;;;;22.58;61.79;99363.03;5131360;28;20371;-52
2021/06/19 02:48:00;;;;;;;;;;;;;;;22.68;61.35;99364.78;5131066;27;20232;-51
2021/06/19 02:50:26;;;;;;;;;;;;;;;22.51;61.85;99362.56;5148468;27;19922;-49
2021/06/19 02:52:52;;;;;;;;;;;;;;;22.60;61.72;99355.41;5153113;27;19918;-49
2021/06/19 02:55:17;;;;;;;;;;;;;;;22.96;60.55;99359.47;5156139;27;19959;-51
2021/06/19 02:57:43;;;;;;;;;;;;;;;23.07;60.23;99365.59;5155704;27;19915;-49
2021/06/19 03:00:09;;;;;;;;;;;;;;;22.37;62.14;99361.66;5153974;27;19915;-51
2021/06/19 03:02:34;;;;;;;;;;;;;;;22.38;62.36;99361.38;5148902;27;19922;-50
2021/06/19 03:05:00;;;;;;;;;;;;;;;22.43;62.63;99369.44;5134058;27;19912;-49
2021/06/19 03:07:25;;;;;;;;;;;;;;;22.33;62.58;99366.06;5133841;27;19915;-51
2021/06/19 03:09:50;;;;;;;;;;;;;;;22.81;61.21;99366.75;5135072;27;20404;-51
2021/06/19 03:12:15;;;;;;;;;;;;;;;23.09;60.04;99368.81;5135290;27;19919;-49
2021/06/19 03:14:41;;;;;;;;;;;;;;;23.11;59.97;99366.63;5135182;27;20025;-50
2021/06/19 03:17:06;;;;;;;;;;;;;;;23.37;59.42;99367.81;5135054;27;19942;-50
2021/06/19 03:19:31;;;;;;;;;;;;;;;23.49;58.84;99364.63;5135366;27;20003;-50
2021/06/19 03:21:58;;;;;;;;;;;;;;;23.35;59.32;99364.59;5135089;27;20002;-50
2021/06/19 03:24:23;;;;;;;;;;;;;;;23.18;59.85;99357.00;5135386;27;19915;-50
2021/06/19 03:26:48;;;;;;;;;;;;;;;23.18;59.85;99359.69;5135067;27;19912;-52
2021/06/19 03:29:13;;;;;;;;;;;;;;;23.44;59.64;99356.56;5135041;27;20275;-48
2021/06/19 03:31:39;;;;;;;;;;;;;;;23.40;59.66;99367.22;5135288;27;19912;-47
2021/06/19 03:34:05;;;;;;;;;;;;;;;23.60;58.87;99371.47;5135031;27;19998;-49
2021/06/19 03:36:30;;;;;;;;;;;;;;;23.49;58.98;99380.91;5134802;27;20286;-48
2021/06/19 03:38:56;;;;;;;;;;;;;;;23.66;58.18;99368.69;5134931;27;19915;-48
2021/06/19 03:41:21;;;;;;;;;;;;;;;23.81;58.20;99368.41;5134429;27;20009;-50
2021/06/19 03:43:46;;;;;;;;;;;;;;;23.87;58.12;99363.69;5134825;27;19912;-49
2021/06/19 03:46:11;;;;;;;;;;;;;;;23.38;60.08;99371.31;5134589;27;20002;-49
2021/06/19 03:48:37;;;;;;;;;;;;;;;23.64;59.42;99370.88;5134904;27;19931;-49
2021/06/19 03:51:02;;;;;;;;;;;;;;;24.09;57.71;99365.72;5134825;27;19998;-51
2021/06/19 03:53:27;;;;;;;;;;;;;;;24.83;55.98;99361.97;5134564;27;19918;-50
2021/06/19 03:55:52;;;;;;;;;;;;;;;25.24;55.06;99355.59;5134727;27;20415;-49
2021/06/19 03:58:18;;;;;;;;;;;;;;;25.61;54.22;99359.84;5134629;27;19981;-49
2021/06/19 04:00:43;;;;;;;;;;;;;;;25.95;52.82;99352.97;5134620;27;19926;-51
2021/06/19 04:03:08;;;;;;;;;;;;;;;26.09;52.29;99358.28;5144351;27;19911;-52
2021/06/19 04:05:34;;;;;;;;;;;;;;;26.15;52.47;99357.03;5154996;27;19911;-50
2021/06/19 04:07:59;;;;;;;;;;;;;;;26.07;52.16;99355.09;5154900;27;19984;-49
2021/06/19 04:10:25;;;;;;;;;;;;;;;26.50;51.20;99352.44;5154919;27;19911;-50
2021/06/19 04:12:51;;;;;;;;;;;;;;;25.78;53.39;99350.94;5154716;27;20363;-50
2021/06/19 04:15:16;;;;;;;;;;;;;;;26.60;51.54;99359.56;5154622;27;19915;-49
2021/06/19 04:17:41;;;;;;;;;;;;;;;27.48;49.33;99361.09;5154494;27;19975;-50
2021/06/19 04:20:07;;;;;;;;;;;;;;;27.71;48.22;99346.41;5154595;27;19966;-49
2021/06/19 04:22:33;;;;;;;;;;;;;;;27.20;49.30;99357.91;5137647;27;19911;-50
2021/06/19 04:24:58;;;;;;;;;;;;;;;27.46;48.75;99349.69;5133908;27;19912;-50
2021/06/19 04:27:23;;;;;;;;;;;;;;;26.95;49.86;99350.56;5134051;27;19912;-50
2021/06/19 04:29:49;;;;;;;;;;;;;;;26.56;50.24;99355.81;5133974;27;19967;-52
2021/06/19 04:32:14;;;;;;;;;;;;;;;26.97;49.97;99356.50;5133436;27;20360;-49
2021/06/19 04:34:40;;;;;;;;;;;;;;;26.63;49.91;99323.41;5133797;27;19919;-48
2021/06/19 04:37:06;;;;;;;;;;;;;;;27.13;49.91;99351.34;5133422;27;19962;-48
2021/06/19 04:39:31;;;;;;;;;;;;;;;27.16;49.46;99365.16;5133545;27;19983;-48
2021/06/19 04:42:05;;;;;;;;;;;;;;;26.92;50.22;99355.53;5133617;27;20438;-49
2021/06/19 04:45:01;;;;;;;;;;;;;;;27.41;49.58;99360.78;5133451;27;19918;-50
2021/06/19 04:47:25;;;;;;;;;;;;;;;28.14;47.99;99359.91;5133225;27;19911;-46
2021/06/19 04:49:51;;;;;;;;;;;;;;;27.73;48.77;99368.75;5133764;27;20262;-51
2021/06/19 04:52:16;;;;;;;;;;;;;;;28.15;48.00;99360.72;5132651;27;19915;-51
2021/06/19 04:54:41;;;;;;;;;;;;;;;28.79;46.86;99357.72;5132556;27;19912;-49
2021/06/19 04:57:07;;;;;;;;;;;;;;;28.95;46.28;99359.84;5132535;27;19943;-50
2021/06/19 04:59:32;;;;;;;;;;;;;;;29.12;44.87;99367.91;5132597;27;19915;-49
2021/06/19 05:01:58;;;;;;;;;;;;;;;29.21;44.96;99371.41;5132399;27;20292;-49
2021/06/19 05:04:23;;;;;;;;;;;;;;;29.73;43.58;99377.47;5132193;27;19912;-51
2021/06/19 05:06:48;;;;;;;;;;;;;;;29.05;45.14;99384.06;5147694;27;19968;-49
2021/06/19 05:09:13;;;;;;;;;;;;;;;28.68;45.66;99392.09;5152782;27;19922;-50
2021/06/19 05:11:39;;;;;;;;;;;;;;;28.16;48.14;99379.53;5153077;27;19934;-51
2021/06/19 05:14:04;;;;;;;;;;;;;;;28.81;46.22;99393.00;5152792;27;20266;-48
2021/06/19 05:16:29;;;;;;;;;;;;;;;29.39;44.27;99393.13;5152263;27;19942;-47
2021/06/19 05:18:54;;;;;;;;;;;;;;;29.73;43.64;99388.44;5152754;27;20311;-48
2021/06/19 05:21:20;;;;;;;;;;;;;;;29.93;43.23;99379.34;5145831;27;19915;-50
2021/06/19 05:23:45;;;;;;;;;;;;;;;30.08;43.20;99382.53;5131829;27;19950;-50
2021/06/19 05:26:10;;;;;;;;;;;;;;;29.70;43.56;99384.44;5131748;27;19919;-50
2021/06/19 05:28:35;;;;;;;;;;;;;;;30.73;42.09;99388.88;5131784;27;20350;-49
2021/06/19 05:31:02;;;;;;;;;;;;;;;31.17;41.30;99390.94;5131577;27;19912;-49
2021/06/19 05:33:27;;;;;;;;;;;;;;;30.88;41.18;99381.06;5131602;27;19938;-49
2021/06/19 05:35:53;;;;;;;;;;;;;;;31.36;40.84;99390.28;5131671;27;20347;-49
2021/06/19 05:38:19;;;;;;;;;;;;;;;31.69;39.80;99390.00;5131880;27;19999;-51
2021/06/19 05:40:44;;;;;;;;;;;;;;;31.91;39.37;99380.31;5131734;27;19923;-49
2021/06/19 05:43:09;;;;;;;;;;;;;;;30.90;40.67;99393.34;5131625;27;19931;-50
2021/06/19 05:45:35;;;;;;;;;;;;;;;30.91;41.01;99366.66;5113114;27;19918;-50
2021/06/19 05:48:00;;;;;;;;;;;;;;;31.22;40.19;99387.91;5131394;27;19911;-51
2021/06/19 05:50:25;;;;;;;;;;;;;;;30.78;40.71;99390.59;5121167;27;19936;-51
2021/06/19 05:52:51;;;;;;;;;;;;;;;30.32;41.87;99387.25;5114040;27;19916;-52
2021/06/19 05:55:16;;;;;;;;;;;;;;;31.19;40.88;99388.66;5121776;27;19915;-49
2021/06/19 05:57:42;;;;;;;;;;;;;;;31.63;40.02;99390.63;5110657;28;19919;-48
2021/06/19 06:00:07;;;;;;;;;;;;;;;32.05;39.15;99384.59;5110971;28;19935;-49
2021/06/19 06:02:32;;;;;;;;;;;;;;;31.51;39.51;99388.72;5120138;27;20013;-48
2021/06/19 06:04:58;;;;;;;;;;;;;;;31.43;39.59;99389.66;5152029;27;19911;-50
2021/06/19 06:07:23;;;;;;;;;;;;;;;31.34;40.18;99390.63;5152049;27;19911;-49
2021/06/19 06:09:48;;;;;;;;;;;;;;;31.15;40.43;99385.00;5152220;27;19922;-51
2021/06/19 06:12:14;;;;;;;;;;;;;;;31.48;39.72;99390.22;5152349;27;19933;-52
2021/06/19 06:14:39;;;;;;;;;;;;;;;31.67;39.21;99380.50;5152055;27;20452;-49
2021/06/19 06:17:04;;;;;;;;;;;;;;;31.55;39.30;99375.88;5151936;27;19919;-50
2021/06/19 06:19:29;;;;;;;;;;;;;;;31.03;40.04;99374.06;5151829;27;19938;-48
2021/06/19 06:21:55;;;;;;;;;;;;;;;30.97;40.03;99368.00;5140176;27;20247;-50
2021/06/19 06:24:20;;;;;;;;;;;;;;;31.29;39.45;99370.84;5131261;28;19911;-50
2021/06/19 06:26:45;;;;;;;;;;;;;;;31.95;38.21;99372.97;5131427;27;20362;-50
2021/06/19 06:29:10;;;;;;;;;;;;;;;31.16;39.72;99370.09;5145789;27;19914;-48
2021/06/19 06:31:36;;;;;;;;;;;;;;;31.64;38.63;99365.50;5144812;27;20350;-51
2021/06/19 06:34:01;;;;;;;;;;;;;;;32.01;38.54;99367.19;5146820;27;19915;-49
2021/06/19 06:36:26;;;;;;;;;;;;;;;32.24;37.66;99359.09;5155423;27;20006;-48
2021/06/19 06:38:52;;;;;;;;;;;;;;;32.36;37.70;99356.22;5155674;27;19980;-49
2021/06/19 06:41:17;;;;;;;;;;;;;;;31.83;39.22;99358.50;5140660;27;20271;-48
2021/06/19 06:43:42;;;;;;;;;;;;;;;32.03;39.39;99354.69;5135063;27;20377;-50
2021/06/19 06:46:07;;;;;;;;;;;;;;;32.49;37.51;99351.41;5135019;27;19911;-48
2021/06/19 06:48:33;;;;;;;;;;;;;;;32.93;37.23;99348.38;5134695;27;20314;-48
2021/06/19 06:50:58;;;;;;;;;;;;;;;32.49;36.95;99343.13;5134743;27;19912;-51
2021/06/19 06:53:23;;;;;;;;;;;;;;;32.50;36.96;99347.47;5134936;27;19994;-50
2021/06/19 06:55:48;;;;;;;;;;;;;;;32.85;36.62;99344.69;5134872;27;19915;-48
2021/06/19 06:58:14;;;;;;;;;;;;;;;31.87;37.85;99329.94;5134111;27;19918;-47
2021/06/19 07:00:39;;;;;;;;;;;;;;;31.42;38.73;99333.09;5134288;27;19916;-49
2021/06/19 07:03:04;;;;;;;;;;;;;;;31.54;38.34;99324.78;5143861;27;19922;-50
2021/06/19 07:05:30;;;;;;;;;;;;;;;31.08;39.28;99327.91;5155165;27;20318;-49
2021/06/19 07:07:55;;;;;;;;;;;;;;;31.15;39.55;99330.06;5155409;27;20036;-49
2021/06/19 07:10:21;;;;;;;;;;;;;;;31.78;38.18;99334.81;5154949;27;19915;-51
2021/06/19 07:12:46;;;;;;;;;;;;;;;31.38;38.50;99333.00;5154511;27;19915;-48
2021/06/19 07:15:12;;;;;;;;;;;;;;;31.91;37.73;99330.81;5155484;27;19934;-49
2021/06/19 07:17:37;;;;;;;;;;;;;;;32.17;38.46;99321.19;5155025;27;19919;-48
2021/06/19 07:20:04;;;;;;;;;;;;;;;32.25;37.80;99320.22;5154990;27;20271;-47
2021/06/19 07:22:29;;;;;;;;;;;;;;;33.17;36.06;99330.78;5138287;27;20367;-48
2021/06/19 07:24:55;;;;;;;;;;;;;;;33.05;35.85;99326.19;5134355;27;19968;-50
2021/06/19 07:27:21;;;;;;;;;;;;;;;33.05;36.09;99325.38;5133657;27;19998;-48
2021/06/19 07:29:46;;;;;;;;;;;;;;;33.89;35.04;99318.19;5115350;27;19972;-49
2021/06/19 07:32:11;;;;;;;;;;;;;;;34.66;33.56;99316.13;5133960;27;19915;-47
2021/06/19 07:34:37;;;;;;;;;;;;;;;34.34;33.96;99316.50;5136701;27;20379;-48
2021/06/19 07:37:02;;;;;;;;;;;;;;;34.94;33.26;99315.69;5142806;27;19916;-48
2021/06/19 07:39:27;;;;;;;;;;;;;;;35.26;32.69;99320.78;5143901;27;19911;-47
2021/06/19 07:41:52;;;;;;;;;;;;;;;35.53;31.81;99332.50;5139423;27;20290;-48
2021/06/19 07:44:18;;;;;;;;;;;;;;;35.33;32.27;99320.84;5142440;27;19915;-46
2021/06/19 07:46:46;;;;;;;;;;;;;;;36.09;31.05;99325.00;5154522;27;19916;-48
2021/06/19 07:49:11;;;;;;;;;;;;;;;36.84;30.16;99319.06;5154959;27;19942;-49
2021/06/19 07:51:37;;;;;;;;;;;;;;;36.08;30.29;99315.13;5155202;27;20335;-49
2021/06/19 07:54:02;;;;;;;;;;;;;;;36.17;29.95;99304.50;5155572;27;19917;-49
2021/06/19 07:56:27;;;;;;;;;;;;;;;34.58;32.12;99308.94;5155553;27;19970;-48
2021/06/19 07:58:53;;;;;;;;;;;;;;;35.58;30.41;99309.19;5154902;27;19975;-48
2021/06/19 08:01:18;;;;;;;;;;;;;;;36.51;30.12;99315.38;5155046;27;20235;-48
2021/06/19 08:03:43;;;;;;;;;;;;;;;36.76;28.81;99298.06;5154963;27;19974;-48
2021/06/19 08:06:08;;;;;;;;;;;;;;;36.51;30.08;99307.06;5154710;27;19950;-49
2021/06/19 08:08:34;;;;;;;;;;;;;;;35.42;31.78;99307.50;5154067;27;20011;-48
2021/06/19 08:10:59;;;;;;;;;;;;;;;36.18;30.50;99311.66;5153641;27;19911;-48
2021/06/19 08:13:24;;;;;;;;;;;;;;;34.85;31.07;99304.16;5153334;27;20005;-48
2021/06/19 08:15:50;;;;;;;;;;;;;;;35.28;30.78;99310.16;5153996;27;20453;-49
2021/06/19 08:18:15;;;;;;;;;;;;;;;34.73;30.77;99296.91;5153607;27;19976;-50
2021/06/19 08:20:40;;;;;;;;;;;;;;;33.89;31.75;99304.41;5152408;27;19999;-49
2021/06/19 08:23:06;;;;;;;;;;;;;;;34.40;31.21;99300.41;5132813;27;20002;-48
2021/06/19 08:25:31;;;;;;;;;;;;;;;34.96;29.82;99304.28;5133778;27;19915;-48
2021/06/19 08:27:56;;;;;;;;;;;;;;;35.21;29.78;99304.53;5134066;27;19915;-50
2021/06/19 08:30:22;;;;;;;;;;;;;;;35.15;30.28;99308.81;5133967;27;19968;-48
2021/06/19 08:32:47;;;;;;;;;;;;;;;35.42;30.48;99313.03;5134008;27;19919;-47
2021/06/19 08:35:12;;;;;;;;;;;;;;;34.51;29.56;99308.84;5133840;27;19919;-49
2021/06/19 08:37:38;;;;;;;;;;;;;;;34.85;28.51;99298.63;5133535;27;19960;-49
2021/06/19 08:40:04;;;;;;;;;;;;;;;34.12;30.65;99304.38;5133458;27;19980;-48
2021/06/19 08:42:29;;;;;;;;;;;;;;;34.19;30.51;99304.47;5133113;27;19957;-48
2021/06/19 08:44:56;;;;;;;;;;;;;;;33.57;31.14;99292.88;5132984;27;19943;-47
2021/06/19 08:47:22;;;;;;;;;;;;;;;33.86;30.81;99297.66;5114847;27;20383;-50
2021/06/19 08:49:47;;;;;;;;;;;;;;;33.94;30.88;99309.63;5114096;28;19926;-49
2021/06/19 08:52:13;;;;;;;;;;;;;;;34.20;30.50;99302.53;5114275;27;20255;-47
2021/06/19 08:54:38;;;;;;;;;;;;;;;34.99;29.03;99296.00;5114802;27;19911;-48
2021/06/19 08:57:07;;;;;;;;;;;;;;;35.49;28.47;99301.25;5133025;27;20387;-50
2021/06/19 08:59:32;;;;;;;;;;;;;;;35.32;28.33;99302.69;5132899;27;19922;-51
2021/06/19 09:01:58;;;;;;;;;;;;;;;35.41;28.17;99296.81;5133323;27;20278;-48
2021/06/19 09:04:23;;;;;;;;;;;;;;;34.65;29.75;99290.47;5153927;27;19933;-51
2021/06/19 09:06:48;;;;;;;;;;;;;;;33.93;29.95;99301.69;5153434;27;19922;-49
2021/06/19 09:09:15;;;;;;;;;;;;;;;33.57;30.71;99290.09;5153856;27;19946;-47
2021/06/19 09:11:43;;;;;;;;;;;;;;;33.93;29.66;99297.00;5153594;27;19915;-51
2021/06/19 09:14:08;;;;;;;;;;;;;;;34.12;29.27;99296.09;5151925;27;19995;-47
2021/06/19 09:16:34;;;;;;;;;;;;;;;34.55;28.86;99296.66;5152819;27;19946;-49
2021/06/19 09:18:59;;;;;;;;;;;;;;;34.56;28.39;99292.75;5152859;27;19916;-48
2021/06/19 09:21:34;;;;;;;;;;;;;;;34.42;28.17;99290.59;5145276;27;19962;-47
2021/06/19 09:24:00;;;;;;;;;;;;;;;34.64;28.38;99299.13;5131912;27;19919;-49
2021/06/19 09:26:31;;;;;;;;;;;;;;;34.16;29.44;99305.25;5131925;27;20286;-52
2021/06/19 09:28:56;;;;;;;;;;;;;;;33.22;32.96;99324.16;5131840;27;20294;-53
2021/06/19 09:31:31;;;;;;;;;;;;;;;31.47;37.55;99341.09;5131626;27;19911;-53
2021/06/19 09:34:06;;;;;;;;;;;;;;;32.10;35.99;99332.03;5131706;27;19911;-54
2021/06/19 09:36:35;;;;;;;;;;;;;;;32.42;36.14;99312.69;5131813;27;19950;-52
2021/06/19 09:39:03;;;;;;;;;;;;;;;32.42;34.30;99296.97;5131788;27;19960;-51
2021/06/19 09:41:42;;;;;;;;;;;;;;;32.20;37.24;99294.94;5131997;27;19916;-52
2021/06/19 09:44:07;;;;;;;;;;;;;;;31.97;39.32;99298.31;5131669;27;20324;-49
2021/06/19 09:46:33;;;;;;;;;;;;;;;31.91;38.89;99292.31;5131901;27;19911;-50
2021/06/19 09:49:08;;;;;;;;;;;;;;;31.90;38.68;99295.41;5113208;27;19911;-48
2021/06/19 09:51:33;;;;;;;;;;;;;;;31.77;41.67;99290.00;5131041;27;19918;-49
2021/06/19 09:54:02;;;;;;;;;;;;;;;31.85;40.19;99295.66;5131391;27;19911;-49
2021/06/19 09:56:28;;;;;;;;;;;;;;;31.26;38.34;99291.84;5131305;27;19911;-48
2021/06/19 09:58:55;;;;;;;;;;;;;;;30.09;45.94;99315.56;5142282;27;19918;-50
2021/06/19 10:01:37;;;;;;;;;;;;;;;28.58;49.86;99346.78;5151575;27;19925;-52
2021/06/19 10:04:02;;;;;;;;;;;;;;;28.88;50.54;99326.72;5152019;27;19935;-52
2021/06/19 10:06:28;;;;;;;;;;;;;;;29.42;46.94;99322.00;5151593;27;20361;-52
2021/06/19 10:08:54;;;;;;;;;;;;;;;29.76;47.36;99314.53;5151321;27;19911;-49
2021/06/19 10:11:21;;;;;;;;;;;;;;;29.86;45.93;99301.53;5133482;27;19959;-52
2021/06/19 10:13:46;;;;;;;;;;;;;;;29.88;45.18;99299.25;5151503;27;19911;-51
2021/06/19 10:16:12;;;;;;;;;;;;;;;29.71;45.65;99311.19;5150650;27;19930;-53
2021/06/19 10:18:40;;;;;;;;;;;;;;;29.17;47.54;99303.94;5150776;27;20075;-51
2021/06/19 10:21:09;;;;;;;;;;;;;;;28.85;47.20;99312.56;5146654;27;19915;-50
2021/06/19 10:23:35;;;;;;;;;;;;;;;27.57;52.92;99302.88;5131276;27;20002;-51
2021/06/19 10:26:00;;;;;;;;;;;;;;;28.02;52.39;99300.44;5112265;28;19911;-51
2021/06/19 10:28:25;;;;;;;;;;;;;;;28.68;50.36;99298.25;5131104;28;19915;-49
2021/06/19 10:30:51;;;;;;;;;;;;;;;29.17;51.29;99296.50;5130221;28;20520;-51
2021/06/19 10:33:29;;;;;;;;;;;;;;;29.48;48.35;99294.41;5130400;28;19916;-47
2021/06/19 10:35:55;;;;;;;;;;;;;;;29.28;48.01;99283.16;5130522;28;19912;-49
2021/06/19 10:38:20;;;;;;;;;;;;;;;29.13;50.92;99287.38;5130673;27;19951;-50
2021/06/19 10:41:06;;;;;;;;;;;;;;;29.23;49.17;99289.66;5130942;28;19947;-48
2021/06/19 10:43:32;;;;;;;;;;;;;;;28.39;47.37;99283.47;5130418;28;19912;-48
2021/06/19 10:46:23;;;;;;;;;;;;;;;28.19;49.93;99285.06;5112349;28;20028;-48
2021/06/19 10:48:51;;;;;;;;;;;;;;;27.86;49.87;99282.97;5126082;28;19911;-48
2021/06/19 10:51:20;;;;;;;;;;;;;;;28.43;49.12;99281.69;5095952;28;19911;-50
2021/06/19 10:54:04;;;;;;;;;;;;;;;28.11;49.10;99283.19;5131236;28;20022;-50
2021/06/19 10:56:43;;;;;;;;;;;;;;;28.53;49.53;99277.75;5131314;28;20428;-49
2021/06/19 10:59:14;;;;;;;;;;;;;;;28.21;50.96;99267.19;5145364;27;19922;-50
2021/06/19 11:01:39;;;;;;;;;;;;;;;28.08;50.05;99271.78;5151550;27;20317;-49
2021/06/19 11:04:05;;;;;;;;;;;;;;;27.90;49.11;99267.56;5151817;27;19954;-50
2021/06/19 11:06:30;;;;;;;;;;;;;;;28.66;47.49;99269.25;5151011;27;19941;-47
2021/06/19 11:09:01;;;;;;;;;;;;;;;28.35;47.25;99269.66;5151422;27;20536;-48
2021/06/19 11:11:45;;;;;;;;;;;;;;;29.40;46.01;99268.69;5151496;27;20382;-48
2021/06/19 11:14:10;;;;;;;;;;;;;;;29.99;43.40;99260.03;5153368;27;19915;-48
2021/06/19 11:16:35;;;;;;;;;;;;;;;30.96;41.77;99262.84;5155574;27;19967;-49
2021/06/19 11:19:01;;;;;;;;;;;;;;;31.21;40.78;99268.19;5155928;27;20002;-48
2021/06/19 11:21:27;;;;;;;;;;;;;;;31.54;41.44;99261.56;5147605;27;19991;-49
2021/06/19 11:23:59;;;;;;;;;;;;;;;32.11;39.55;99254.63;5134057;27;19990;-39
2021/06/19 11:26:43;;;;;;;;;;;;;;;32.25;37.64;99251.41;5134624;27;20430;-37
2021/06/19 11:29:26;;;;;;;;;;;;;;;31.56;36.67;99254.53;5134984;27;19918;-39
2021/06/19 11:31:52;;;;;;;;;;;;;;;31.67;36.45;99254.00;5134683;27;19912;-37
2021/06/19 11:34:36;;;;;;;;;;;;;;;31.87;37.15;99236.41;5134642;27;19938;-37
2021/06/19 11:37:01;;;;;;;;;;;;;;;32.83;36.85;99238.78;5134509;27;19911;-38
2021/06/19 11:39:34;;;;;;;;;;;;;;;33.58;35.62;99229.03;5134671;27;19916;-38
2021/06/19 11:41:59;;;;;;;;;;;;;;;34.25;35.34;99227.66;5134222;27;19919;-38
2021/06/19 11:44:31;;;;;;;;;;;;;;;33.25;38.48;99235.22;5134754;27;19968;-38
2021/06/19 11:46:57;;;;;;;;;;;;;;;33.26;39.57;99234.03;5134392;27;20008;-38
2021/06/19 11:49:23;;;;;;;;;;;;;;;33.32;38.76;99224.31;5134440;27;20001;-38
2021/06/19 11:51:49;;;;;;;;;;;;;;;33.49;35.83;99225.75;5140189;27;20298;-38
2021/06/19 11:54:14;;;;;;;;;;;;;;;33.71;36.47;99218.63;5154684;27;19961;-38
2021/06/19 11:56:40;;;;;;;;;;;;;;;33.74;37.12;99217.91;5154833;27;20297;-38
2021/06/19 11:59:05;;;;;;;;;;;;;;;34.02;36.38;99227.72;5140725;27;19911;-38
2021/06/19 12:01:31;;;;;;;;;;;;;;;34.12;37.78;99227.09;5132579;27;20328;-37
2021/06/19 12:03:59;;;;;;;;;;;;;;;34.49;37.29;99229.13;5134011;27;20006;-37
2021/06/19 12:06:35;;;;;;;;;;;;;;;34.09;38.34;99225.84;5133395;27;19935;-39
2021/06/19 12:09:01;;;;;;;;;;;;;;;34.37;36.50;99230.19;5133688;27;20007;-39
2021/06/19 12:11:29;;;;;;;;;;;;;;;34.21;36.02;99226.81;5133596;27;20009;-38
2021/06/19 12:13:55;;;;;;;;;;;;;;;34.44;35.47;99219.22;5133799;27;19911;-38
2021/06/19 12:16:21;;;;;;;;;;;;;;;34.72;35.14;99223.47;5133261;27;20293;-38
2021/06/19 12:18:55;;;;;;;;;;;;;;;34.99;32.78;99217.81;5132269;27;20323;-39
2021/06/19 12:21:20;;;;;;;;;;;;;;;34.79;32.22;99218.03;5132651;27;19947;-37
2021/06/19 12:23:45;;;;;;;;;;;;;;;34.50;33.83;99216.09;5133530;27;20382;-38
2021/06/19 12:26:11;;;;;;;;;;;;;;;33.48;34.40;99222.19;5134029;27;19915;-39
2021/06/19 12:28:36;;;;;;;;;;;;;;;32.90;35.81;99225.13;5134015;27;19967;-38
2021/06/19 12:31:02;;;;;;;;;;;;;;;33.06;35.49;99214.78;5134344;27;20002;-38
2021/06/19 12:33:27;;;;;;;;;;;;;;;32.42;36.07;99210.81;5133687;27;19938;-39
2021/06/19 12:35:53;;;;;;;;;;;;;;;32.54;36.29;99213.44;5133841;27;20231;-39
2021/06/19 12:38:19;;;;;;;;;;;;;;;32.81;36.88;99213.56;5133822;27;19911;-38
2021/06/19 12:40:44;;;;;;;;;;;;;;;33.24;36.04;99212.38;5132321;27;19922;-38
2021/06/19 12:43:09;;;;;;;;;;;;;;;33.69;34.88;99212.69;5132507;27;19911;-38